createdAt,value
2023-01-23T00:03:25.941Z,4.17
2023-01-23T00:07:27.841Z,4.15
2023-01-23T00:11:30.653Z,4.19
2023-01-23T00:15:33.716Z,4.22
2023-01-23T00:19:35.551Z,4.25
2023-01-23T00:23:38.492Z,4.22
2023-01-23T00:27:40.379Z,4.26
2023-01-23T00:31:42.435Z,4.20
2023-01-23T00:35:44.449Z,4.13
2023-01-23T00:39:46.532Z,4.32
2023-01-23T00:43:48.941Z,4.36
2023-01-23T00:47:53.706Z,4.35
2023-01-23T00:51:56.844Z,4.28
2023-01-23T00:55:59.251Z,4.33
2023-01-23T01:00:01.728Z,4.36
2023-01-23T01:04:04.477Z,4.34
2023-01-23T01:08:06.634Z,4.39
2023-01-23T01:12:08.585Z,4.43
2023-01-23T01:16:13.430Z,4.56
2023-01-23T01:20:16.270Z,4.61
2023-01-23T01:24:18.204Z,4.61
2023-01-23T01:28:20.169Z,4.68
2023-01-23T01:32:22.925Z,4.74
2023-01-23T01:36:25.278Z,4.69
2023-01-23T01:40:29.215Z,4.72
2023-01-23T01:44:50.911Z,4.73
2023-01-23T01:49:05.729Z,4.73
2023-01-23T01:53:07.709Z,4.76
2023-01-23T01:57:19.143Z,4.83
2023-01-23T02:01:21.847Z,4.87
2023-01-23T02:05:26.591Z,4.78
2023-01-23T02:09:33.812Z,4.94
2023-01-23T02:13:37.790Z,4.95
2023-01-23T02:17:39.893Z,4.95
2023-01-23T02:21:43.356Z,4.98
2023-01-23T02:25:45.373Z,4.85
2023-01-23T02:29:52.022Z,4.82
2023-01-23T02:33:55.428Z,4.87
2023-01-23T02:38:00.861Z,4.83
2023-01-23T02:42:03.139Z,4.75
2023-01-23T02:46:26.033Z,4.68
2023-01-23T02:50:28.396Z,4.75
2023-01-23T02:54:30.752Z,4.61
2023-01-23T02:58:51.361Z,4.62
2023-01-23T03:02:55.099Z,4.54
2023-01-23T03:06:57.128Z,4.53
2023-01-23T03:11:03.940Z,4.50
2023-01-23T03:15:07.023Z,4.45
2023-01-23T03:19:10.928Z,4.45
2023-01-23T03:23:14.859Z,4.42
2023-01-23T03:27:16.836Z,4.42
2023-01-23T03:31:23.971Z,4.33
2023-01-23T03:35:26.161Z,4.35
2023-01-23T03:39:49.015Z,4.27
2023-01-23T03:43:52.790Z,4.27
2023-01-23T03:47:56.136Z,4.31
2023-01-23T03:51:58.860Z,4.23
2023-01-23T03:56:01.574Z,4.25
2023-01-23T04:00:05.476Z,4.27
2023-01-23T04:04:20.184Z,4.19
2023-01-23T04:08:22.832Z,4.14
2023-01-23T04:12:25.401Z,4.07
2023-01-23T04:16:28.888Z,4.10
2023-01-23T04:20:33.506Z,3.96
2023-01-23T04:24:35.476Z,4.00
2023-01-23T04:28:37.520Z,3.89
2023-01-23T04:32:39.663Z,3.91
2023-01-23T04:36:42.537Z,3.92
2023-01-23T04:40:44.628Z,3.95
2023-01-23T04:44:49.548Z,3.98
2023-01-23T04:49:21.698Z,3.93
2023-01-23T04:53:23.593Z,3.96
2023-01-23T04:57:33.247Z,3.97
2023-01-23T05:01:48.413Z,3.95
2023-01-23T05:05:51.867Z,3.99
2023-01-23T05:09:53.899Z,4.07
2023-01-23T05:13:56.881Z,4.00
2023-01-23T05:18:00.170Z,3.96
2023-01-23T05:22:02.184Z,4.00
2023-01-23T05:26:05.803Z,4.00
2023-01-23T05:30:08.120Z,4.03
2023-01-23T05:34:10.270Z,4.02
2023-01-23T05:38:15.109Z,4.04
2023-01-23T05:42:19.128Z,4.02
2023-01-23T05:46:37.030Z,3.98
2023-01-23T05:50:39.066Z,3.97
2023-01-23T05:54:41.191Z,4.01
2023-01-23T05:58:44.535Z,3.93
2023-01-23T06:03:09.775Z,4.02
2023-01-23T06:07:40.898Z,4.02
2023-01-23T06:11:44.316Z,3.93
2023-01-23T06:15:46.390Z,3.95
2023-01-23T06:19:48.779Z,3.91
2023-01-23T06:23:51.522Z,3.86
2023-01-23T06:27:54.979Z,3.83
2023-01-23T06:31:59.096Z,3.85
2023-01-23T06:36:03.593Z,3.91
2023-01-23T06:40:07.499Z,4.06
2023-01-23T06:44:10.310Z,4.06
2023-01-23T06:48:13.011Z,4.02
2023-01-23T06:52:16.488Z,3.89
2023-01-23T06:56:21.710Z,4.05
2023-01-23T07:00:30.754Z,4.06
2023-01-23T07:04:35.428Z,3.99
2023-01-23T07:08:37.463Z,3.90
2023-01-23T07:12:39.660Z,3.78
2023-01-23T07:16:43.264Z,3.70
2023-01-23T07:20:45.772Z,3.59
2023-01-23T07:24:49.356Z,3.64
2023-01-23T07:28:51.278Z,3.68
2023-01-23T07:32:53.328Z,3.54
2023-01-23T07:36:55.306Z,3.55
2023-01-23T07:40:58.753Z,3.39
2023-01-23T07:45:00.746Z,3.47
2023-01-23T07:49:02.722Z,3.59
2023-01-23T07:53:08.182Z,3.55
2023-01-23T07:57:10.351Z,3.44
2023-01-23T08:01:12.334Z,3.73
2023-01-23T08:05:14.524Z,3.62
2023-01-23T08:09:16.494Z,3.89
2023-01-23T08:13:18.608Z,3.74
2023-01-23T08:17:21.166Z,3.80
2023-01-23T08:21:23.227Z,3.63
2023-01-23T08:25:25.246Z,3.61
2023-01-23T08:29:27.116Z,3.56
2023-01-23T08:33:30.481Z,3.67
2023-01-23T08:37:34.453Z,3.95
2023-01-23T08:41:36.413Z,4.25
2023-01-23T08:45:38.487Z,4.42
2023-01-23T08:49:40.423Z,4.35
2023-01-23T08:53:42.388Z,4.36
2023-01-23T08:57:45.000Z,4.30
2023-01-23T09:01:48.156Z,4.38
2023-01-23T09:05:50.361Z,4.45
2023-01-23T09:09:52.802Z,4.53
2023-01-23T09:13:54.727Z,4.16
2023-01-23T09:17:56.672Z,4.28
2023-01-23T09:21:58.671Z,4.39
2023-01-23T09:26:04.909Z,4.24
2023-01-23T09:30:07.182Z,4.17
2023-01-23T09:34:09.160Z,4.20
2023-01-23T09:38:11.251Z,4.15
2023-01-23T09:42:21.301Z,4.17
2023-01-23T09:46:26.492Z,4.24
2023-01-23T09:50:31.733Z,4.20
2023-01-23T09:54:52.444Z,4.22
2023-01-23T09:58:54.317Z,3.83
2023-01-23T10:02:56.928Z,3.73
2023-01-23T10:07:05.410Z,3.32
2023-01-23T10:11:23.975Z,3.16
2023-01-23T10:15:36.763Z,2.83
2023-01-23T10:19:51.166Z,2.99
2023-01-23T10:23:59.357Z,3.04
2023-01-23T10:28:12.805Z,3.23
2023-01-23T10:32:26.415Z,3.36
2023-01-23T10:36:47.779Z,3.35
2023-01-23T10:41:13.747Z,3.21
2023-01-23T10:45:19.681Z,2.83
2023-01-23T10:49:30.511Z,2.81
2023-01-23T10:53:32.511Z,2.81
2023-01-23T10:57:44.051Z,2.79
2023-01-23T11:01:57.636Z,2.72
2023-01-23T11:06:16.424Z,2.53
2023-01-23T11:10:20.885Z,2.47
2023-01-23T11:14:24.331Z,2.53
2023-01-23T11:18:32.415Z,2.69
2023-01-23T11:22:38.226Z,2.51
2023-01-23T11:26:40.112Z,2.58
2023-01-23T11:30:46.788Z,2.59
2023-01-23T11:34:57.301Z,2.69
2023-01-23T11:39:21.933Z,2.79
2023-01-23T11:43:23.890Z,2.59
2023-01-23T11:47:29.416Z,2.43
2023-01-23T11:51:47.225Z,2.26
2023-01-23T11:55:52.302Z,2.00
2023-01-23T11:59:54.202Z,1.97
2023-01-23T12:04:02.991Z,1.85
2023-01-23T12:08:11.167Z,1.86
2023-01-23T12:12:32.106Z,2.15
2023-01-23T12:16:37.036Z,2.15
2023-01-23T12:20:49.647Z,2.16
2023-01-23T12:25:01.026Z,2.44
2023-01-23T12:29:22.461Z,2.54
2023-01-23T12:33:48.720Z,2.70
2023-01-23T12:38:00.429Z,2.82
2023-01-23T12:42:07.308Z,2.95
2023-01-23T12:46:24.865Z,3.13
2023-01-23T12:50:35.913Z,3.41
2023-01-23T12:54:42.139Z,3.53
2023-01-23T12:58:56.813Z,3.78
2023-01-23T13:03:07.280Z,3.89
2023-01-23T13:07:21.568Z,4.01
2023-01-23T13:11:41.173Z,4.16
2023-01-23T13:15:43.632Z,4.29
2023-01-23T13:20:04.592Z,4.45
2023-01-23T13:24:48.547Z,4.55
2023-01-23T13:28:57.735Z,4.67
2023-01-23T13:33:06.836Z,4.72
2023-01-23T13:37:27.484Z,4.62
2023-01-23T13:41:29.635Z,4.63
2023-01-23T13:45:31.997Z,4.42
2023-01-23T14:24:57.285Z,4.61
2023-01-23T14:29:00.763Z,4.80
2023-01-23T14:33:10.511Z,4.91
2023-01-23T14:37:12.793Z,5.07
2023-01-23T14:41:16.745Z,5.04
2023-01-23T14:45:19.275Z,4.93
2023-01-23T14:49:26.727Z,4.57
2023-01-23T14:53:28.759Z,4.90
2023-01-23T14:57:31.571Z,4.97
2023-01-23T15:01:35.921Z,4.94
2023-01-23T15:05:41.083Z,4.87
2023-01-23T15:09:45.865Z,4.70
2023-01-23T15:13:50.682Z,4.39
2023-01-23T15:17:53.487Z,4.41
2023-01-23T15:22:19.429Z,4.51
2023-01-23T15:26:24.254Z,4.71
2023-01-23T15:30:29.371Z,5.00
2023-01-23T15:34:32.973Z,5.12
2023-01-23T15:38:35.803Z,4.67
2023-01-23T15:42:37.891Z,4.48
2023-01-23T15:46:40.162Z,4.28
2023-01-23T15:50:42.486Z,4.24
2023-01-23T15:54:44.759Z,4.11
2023-01-23T15:58:46.768Z,4.02
2023-01-23T16:02:56.233Z,3.88
2023-01-23T16:07:01.673Z,3.73
2023-01-23T16:11:03.682Z,3.73
2023-01-23T16:15:13.287Z,3.70
2023-01-23T16:19:15.456Z,3.71
2023-01-23T16:23:22.308Z,3.54
2023-01-23T16:27:27.716Z,3.34
2023-01-23T16:31:29.983Z,3.33
2023-01-23T16:35:32.306Z,3.28
2023-01-23T16:39:34.283Z,3.21
2023-01-23T16:43:36.808Z,3.30
2023-01-23T16:47:38.930Z,3.30
2023-01-23T16:51:43.686Z,3.37
2023-01-23T16:55:45.824Z,3.39
2023-01-23T16:59:48.456Z,3.32
2023-01-23T17:03:59.088Z,3.24
2023-01-23T17:08:01.096Z,3.25
2023-01-23T17:12:03.142Z,3.33
2023-01-23T17:16:15.418Z,3.48
2023-01-23T17:20:24.079Z,3.48
2023-01-23T17:24:26.076Z,3.49
2023-01-23T17:28:28.431Z,3.62
2023-01-23T17:32:35.858Z,3.66
2023-01-23T17:36:37.969Z,3.54
2023-01-23T17:40:40.699Z,3.53
2023-01-23T17:44:42.612Z,3.40
2023-01-23T17:48:44.927Z,3.33
2023-01-23T17:52:47.376Z,3.43
2023-01-23T17:56:49.419Z,3.55
2023-01-23T18:00:53.396Z,3.52
2023-01-23T18:04:55.876Z,3.56
2023-01-23T18:08:57.730Z,3.52
2023-01-23T18:13:00.326Z,3.56
2023-01-23T18:17:02.533Z,3.66
2023-01-23T18:21:05.886Z,3.57
2023-01-23T18:25:12.756Z,3.53
2023-01-23T18:29:24.112Z,3.61
2023-01-23T18:33:29.377Z,3.59
2023-01-23T18:42:11.877Z,3.55
2023-01-23T18:46:15.483Z,3.61
2023-01-23T18:50:19.444Z,3.60
2023-01-23T18:54:24.899Z,3.55
2023-01-23T18:58:55.733Z,3.64
2023-01-23T19:03:16.651Z,3.70
2023-01-23T19:07:19.211Z,3.75
2023-01-23T19:11:26.856Z,3.84
2023-01-23T19:15:41.250Z,3.93
2023-01-23T19:19:55.553Z,3.80
2023-01-23T19:24:06.988Z,3.81
2023-01-23T19:28:19.362Z,3.90
2023-01-23T19:32:24.150Z,4.05
2023-01-23T19:36:28.124Z,4.11
2023-01-23T19:41:08.642Z,4.05
2023-01-23T19:45:34.344Z,4.15
2023-01-23T19:49:36.423Z,4.16
2023-01-23T19:53:38.527Z,4.15
2023-01-23T19:57:40.671Z,3.97
2023-01-23T20:01:45.739Z,3.86
2023-01-23T20:05:48.036Z,3.79
2023-01-23T20:09:50.035Z,3.63
2023-01-23T20:13:52.088Z,3.48
2023-01-23T20:17:54.522Z,3.70
2023-01-23T20:21:56.575Z,3.72
2023-01-23T20:25:59.671Z,3.71
2023-01-23T20:30:02.874Z,3.68
2023-01-23T20:34:05.284Z,3.63
2023-01-23T20:38:07.562Z,3.61
2023-01-23T20:42:11.334Z,3.64
2023-01-23T20:46:14.661Z,3.61
2023-01-23T20:50:16.849Z,3.42
2023-01-23T20:54:19.120Z,3.29
2023-01-23T20:58:40.350Z,3.23
2023-01-23T21:02:42.414Z,3.35
2023-01-23T21:06:44.589Z,3.31
2023-01-23T21:10:46.776Z,3.55
2023-01-23T21:14:48.902Z,3.78
2023-01-23T21:18:53.157Z,3.87
2023-01-23T21:22:55.198Z,3.93
2023-01-23T21:26:57.512Z,4.06
2023-01-23T21:30:59.648Z,4.01
2023-01-23T21:35:01.673Z,4.01
2023-01-23T21:39:04.916Z,3.96
2023-01-23T21:43:07.527Z,3.84
2023-01-23T21:47:10.103Z,3.73
2023-01-23T21:51:13.718Z,3.58
2023-01-23T21:55:16.784Z,3.45
2023-01-23T21:59:18.943Z,3.29
2023-01-23T22:03:20.832Z,2.99
2023-01-23T22:07:22.916Z,2.84
2023-01-23T22:11:24.913Z,2.93
2023-01-23T22:15:27.023Z,2.85
2023-01-23T22:19:32.545Z,2.78
2023-01-23T22:23:37.822Z,2.78
2023-01-23T22:27:40.037Z,2.71
2023-01-23T22:31:43.310Z,2.60
2023-01-23T22:35:46.449Z,2.58
2023-01-23T22:39:48.887Z,2.52
2023-01-23T22:43:54.919Z,2.47
2023-01-23T22:47:57.197Z,2.45
2023-01-23T22:51:59.163Z,2.44
2023-01-23T22:56:04.367Z,2.36
2023-01-23T23:00:07.687Z,2.21
2023-01-23T23:04:09.978Z,2.12
2023-01-23T23:08:12.080Z,1.97
2023-01-23T23:12:14.134Z,1.95
2023-01-23T23:16:22.149Z,1.77
2023-01-23T23:20:24.166Z,1.74
2023-01-23T23:24:26.132Z,1.85
2023-01-23T23:28:28.961Z,1.88
2023-01-23T23:32:30.974Z,1.57
2023-01-23T23:36:33.211Z,1.38
2023-01-23T23:40:35.097Z,1.43
2023-01-23T23:44:37.008Z,1.40
2023-01-23T23:48:38.943Z,1.37
2023-01-23T23:52:41.426Z,1.35
2023-01-23T23:56:43.645Z,1.40
